createdAt,value
2022-12-31T00:02:39.967Z,98344.03
2022-12-31T00:05:42.682Z,98338.19
2022-12-31T00:08:46.024Z,98350.03
2022-12-31T00:11:48.729Z,98336.59
2022-12-31T00:14:51.261Z,98349.78
2022-12-31T00:17:55.284Z,98351.03
2022-12-31T00:20:57.809Z,98352.59
2022-12-31T00:24:00.949Z,98349.97
2022-12-31T00:27:03.603Z,98358.16
2022-12-31T00:30:07.105Z,98365.72
2022-12-31T00:33:10.853Z,98374.41
2022-12-31T00:36:15.200Z,98374.28
2022-12-31T00:39:17.810Z,98384.00
2022-12-31T00:42:20.358Z,98375.34
2022-12-31T00:45:22.993Z,98374.72
2022-12-31T00:48:27.070Z,98374.28
2022-12-31T00:51:29.857Z,98389.13
2022-12-31T00:54:32.404Z,98395.00
2022-12-31T00:57:35.144Z,98393.53
2022-12-31T01:00:38.034Z,98406.56
2022-12-31T01:03:41.971Z,98408.72
2022-12-31T01:06:44.898Z,98411.66
2022-12-31T01:09:47.433Z,98404.72
2022-12-31T01:12:50.055Z,98406.34
2022-12-31T01:15:52.616Z,98411.72
2022-12-31T01:18:57.923Z,98413.53
2022-12-31T01:22:00.654Z,98423.25
2022-12-31T01:25:03.178Z,98431.50
2022-12-31T01:28:06.861Z,98442.47
2022-12-31T01:31:11.234Z,98440.88
2022-12-31T01:34:15.208Z,98440.75
2022-12-31T01:37:17.768Z,98443.94
2022-12-31T01:40:20.465Z,98455.28
2022-12-31T01:43:23.027Z,98465.31
2022-12-31T01:46:29.229Z,98454.31
2022-12-31T01:49:37.323Z,98447.66
2022-12-31T01:52:42.520Z,98454.34
2022-12-31T01:55:49.500Z,98457.69
2022-12-31T01:58:53.683Z,98456.63
2022-12-31T02:01:56.691Z,98470.09
2022-12-31T02:05:03.956Z,98467.69
2022-12-31T02:08:07.389Z,98465.34
2022-12-31T02:11:27.593Z,98455.41
2022-12-31T02:14:32.197Z,98466.25
2022-12-31T02:17:37.304Z,98473.69
2022-12-31T02:20:53.791Z,98475.63
2022-12-31T02:24:22.003Z,98486.56
2022-12-31T02:27:37.520Z,98482.34
2022-12-31T02:30:42.568Z,98480.59
2022-12-31T02:33:48.736Z,98478.69
2022-12-31T02:36:52.012Z,98489.50
2022-12-31T02:39:54.789Z,98482.84
2022-12-31T02:42:57.535Z,98493.06
2022-12-31T02:46:06.284Z,98500.38
2022-12-31T02:49:15.717Z,98493.63
2022-12-31T02:52:22.914Z,98479.78
2022-12-31T02:55:30.376Z,98481.13
2022-12-31T02:58:49.662Z,98481.38
2022-12-31T03:02:15.679Z,98463.03
2022-12-31T03:05:21.150Z,98471.72
2022-12-31T03:08:25.066Z,98478.31
2022-12-31T03:11:45.168Z,98484.56
2022-12-31T03:14:47.849Z,98472.69
2022-12-31T03:17:57.161Z,98462.84
2022-12-31T03:21:17.512Z,98473.84
2022-12-31T03:24:37.981Z,98461.25
2022-12-31T03:27:40.979Z,98464.09
2022-12-31T03:30:45.550Z,98472.22
2022-12-31T03:33:49.484Z,98469.94
2022-12-31T03:36:52.028Z,98482.91
2022-12-31T03:39:54.672Z,98496.50
2022-12-31T03:42:57.307Z,98485.19
2022-12-31T03:46:01.563Z,98482.44
2022-12-31T03:49:05.575Z,98482.06
2022-12-31T03:52:08.667Z,98486.22
2022-12-31T03:55:12.129Z,98495.72
2022-12-31T03:58:14.693Z,98494.88
2022-12-31T04:01:17.419Z,98497.53
2022-12-31T04:04:21.661Z,98496.88
2022-12-31T04:07:24.416Z,98495.56
2022-12-31T04:10:27.006Z,98498.91
2022-12-31T04:13:29.685Z,98499.75
2022-12-31T04:16:32.857Z,98498.44
2022-12-31T04:19:37.630Z,98496.13
2022-12-31T04:22:40.291Z,98497.31
2022-12-31T04:25:42.806Z,98499.47
2022-12-31T04:28:45.315Z,98504.56
2022-12-31T04:31:47.943Z,98493.03
2022-12-31T04:34:51.870Z,98492.25
2022-12-31T04:37:54.424Z,98497.53
2022-12-31T04:41:14.765Z,98496.59
2022-12-31T04:44:17.801Z,98513.72
2022-12-31T04:47:23.889Z,98527.25
2022-12-31T04:50:28.044Z,98517.84
2022-12-31T04:53:30.844Z,98530.59
2022-12-31T04:56:36.534Z,98542.78
2022-12-31T04:59:39.131Z,98541.09
2022-12-31T05:02:41.836Z,98550.75
2022-12-31T05:05:45.902Z,98550.78
2022-12-31T05:08:48.902Z,98553.09
2022-12-31T05:11:51.430Z,98545.97
2022-12-31T05:14:54.065Z,98551.13
2022-12-31T05:17:56.708Z,98551.41
2022-12-31T05:21:00.815Z,98559.31
2022-12-31T05:24:03.377Z,98558.78
2022-12-31T05:27:05.965Z,98560.00
2022-12-31T05:30:09.536Z,98561.53
2022-12-31T05:33:12.028Z,98551.50
2022-12-31T05:36:15.925Z,98552.22
2022-12-31T05:39:18.620Z,98563.94
2022-12-31T05:42:21.489Z,98558.47
2022-12-31T05:45:30.129Z,98558.09
2022-12-31T05:48:33.879Z,98560.41
2022-12-31T05:51:37.829Z,98557.44
2022-12-31T05:54:40.526Z,98579.31
2022-12-31T05:57:43.194Z,98571.50
2022-12-31T06:00:46.015Z,98577.13
2022-12-31T06:03:48.849Z,98580.66
2022-12-31T06:06:52.799Z,98576.41
2022-12-31T06:09:55.494Z,98580.78
2022-12-31T06:12:59.215Z,98584.56
2022-12-31T06:16:06.340Z,98598.06
2022-12-31T06:19:09.060Z,98604.06
2022-12-31T06:22:13.013Z,98601.81
2022-12-31T06:25:15.771Z,98585.13
2022-12-31T06:28:20.622Z,98589.91
2022-12-31T06:31:23.599Z,98576.25
2022-12-31T06:34:26.385Z,98584.06
2022-12-31T06:37:30.332Z,98585.22
2022-12-31T06:40:33.076Z,98592.75
2022-12-31T06:43:36.321Z,98592.22
2022-12-31T06:46:39.126Z,98598.00
2022-12-31T06:49:41.790Z,98592.22
2022-12-31T06:52:45.730Z,98590.00
2022-12-31T06:55:49.348Z,98584.41
2022-12-31T06:58:52.859Z,98576.63
2022-12-31T07:02:06.547Z,98569.41
2022-12-31T07:05:23.069Z,98574.13
2022-12-31T07:08:43.110Z,98585.72
2022-12-31T07:11:56.402Z,98587.25
2022-12-31T07:15:00.904Z,98596.31
2022-12-31T07:18:07.996Z,98599.78
2022-12-31T07:21:13.412Z,98605.03
2022-12-31T07:24:18.422Z,98606.34
2022-12-31T07:27:33.367Z,98609.88
2022-12-31T07:30:41.705Z,98617.03
2022-12-31T07:33:52.816Z,98611.78
2022-12-31T07:37:02.499Z,98621.25
2022-12-31T07:40:13.611Z,98616.81
2022-12-31T07:43:25.225Z,98620.44
2022-12-31T07:46:34.092Z,98625.41
2022-12-31T07:49:39.360Z,98618.59
2022-12-31T07:52:42.562Z,98625.00
2022-12-31T07:55:46.461Z,98620.97
2022-12-31T07:58:56.924Z,98629.41
2022-12-31T08:02:04.280Z,98629.84
2022-12-31T08:05:10.035Z,98638.03
2022-12-31T08:08:23.509Z,98636.44
2022-12-31T08:11:36.037Z,98642.13
2022-12-31T08:14:44.582Z,98648.88
2022-12-31T08:17:47.651Z,98649.69
2022-12-31T08:20:58.840Z,98648.09
2022-12-31T08:24:08.708Z,98659.13
2022-12-31T08:27:17.100Z,98652.03
2022-12-31T08:30:21.214Z,98648.97
2022-12-31T08:33:28.043Z,98642.53
2022-12-31T08:36:34.421Z,98638.56
2022-12-31T08:39:49.168Z,98654.75
2022-12-31T08:43:17.982Z,98639.25
2022-12-31T08:46:26.003Z,98664.03
2022-12-31T08:49:30.707Z,98663.16
2022-12-31T08:52:33.861Z,98662.22
2022-12-31T08:55:37.177Z,98672.88
2022-12-31T08:58:46.608Z,98689.53
2022-12-31T09:02:00.408Z,98694.25
2022-12-31T09:05:09.524Z,98701.75
2022-12-31T09:08:19.274Z,98695.34
2022-12-31T09:11:25.226Z,98695.97
2022-12-31T09:14:50.784Z,98703.25
2022-12-31T09:17:53.898Z,98713.06
2022-12-31T09:20:56.841Z,98710.53
2022-12-31T09:24:04.430Z,98709.75
2022-12-31T09:27:15.033Z,98705.00
2022-12-31T09:30:19.792Z,98702.47
2022-12-31T09:33:33.086Z,98695.97
2022-12-31T09:36:40.121Z,98706.13
2022-12-31T09:39:44.500Z,98708.63
2022-12-31T09:43:11.321Z,98704.78
2022-12-31T09:46:55.639Z,98727.56
2022-12-31T09:50:04.756Z,98712.84
2022-12-31T09:53:39.170Z,98717.41
2022-12-31T09:56:47.099Z,98717.50
2022-12-31T09:59:53.897Z,98720.19
2022-12-31T10:03:18.220Z,98703.22
2022-12-31T10:06:24.287Z,98716.44
2022-12-31T10:10:10.123Z,98710.59
2022-12-31T10:13:36.175Z,98703.91
2022-12-31T10:17:09.332Z,98691.97
2022-12-31T10:20:29.046Z,98692.59
2022-12-31T10:24:04.125Z,98697.59
2022-12-31T10:27:18.379Z,98692.41
2022-12-31T10:30:24.408Z,98685.72
2022-12-31T10:33:38.728Z,98695.16
2022-12-31T10:36:53.188Z,98701.41
2022-12-31T10:40:16.492Z,98710.50
2022-12-31T10:43:35.028Z,98705.03
2022-12-31T10:47:15.446Z,98700.44
2022-12-31T10:50:44.650Z,98683.97
2022-12-31T10:54:14.083Z,98680.53
2022-12-31T10:57:48.116Z,98678.38
2022-12-31T11:00:52.665Z,98677.06
2022-12-31T11:04:12.579Z,98667.41
2022-12-31T11:07:35.999Z,98670.00
2022-12-31T11:11:00.354Z,98671.59
2022-12-31T11:14:33.892Z,98667.13
2022-12-31T11:17:42.795Z,98672.97
2022-12-31T11:20:56.902Z,98661.66
2022-12-31T11:24:05.248Z,98660.94
2022-12-31T11:27:22.890Z,98655.50
2022-12-31T11:30:29.398Z,98666.75
2022-12-31T11:33:50.177Z,98658.66
2022-12-31T11:37:06.322Z,98647.13
2022-12-31T11:40:22.837Z,98649.22
2022-12-31T11:43:34.596Z,98647.28
2022-12-31T11:46:45.148Z,98647.22
2022-12-31T11:50:04.943Z,98647.31
2022-12-31T11:53:19.108Z,98639.81
2022-12-31T11:56:22.683Z,98634.25
2022-12-31T11:59:26.667Z,98624.94
2022-12-31T12:02:31.357Z,98626.56
2022-12-31T12:05:35.025Z,98643.22
2022-12-31T12:08:38.011Z,98622.34
2022-12-31T12:11:41.507Z,98624.09
2022-12-31T12:14:47.012Z,98620.28
2022-12-31T12:17:53.011Z,98616.00
2022-12-31T12:21:02.914Z,98627.16
2022-12-31T12:24:15.193Z,98621.34
2022-12-31T12:27:23.105Z,98612.19
2022-12-31T12:30:29.917Z,98613.44
2022-12-31T12:33:43.479Z,98610.19
2022-12-31T12:36:46.930Z,98605.41
2022-12-31T12:39:57.470Z,98602.72
2022-12-31T12:43:00.159Z,98610.31
2022-12-31T12:46:06.231Z,98605.22
2022-12-31T12:49:15.549Z,98602.88
2022-12-31T12:52:35.036Z,98596.16
2022-12-31T12:55:42.229Z,98587.50
2022-12-31T12:58:53.314Z,98593.88
2022-12-31T13:02:04.403Z,98592.97
2022-12-31T13:05:22.956Z,98593.88
2022-12-31T13:08:37.804Z,98600.28
2022-12-31T13:11:47.677Z,98588.25
2022-12-31T13:14:56.069Z,98585.53
2022-12-31T13:18:07.185Z,98582.66
2022-12-31T13:21:29.862Z,98584.75
2022-12-31T13:24:48.323Z,98576.00
2022-12-31T13:27:53.387Z,98572.03
2022-12-31T13:31:06.317Z,98574.78
2022-12-31T13:34:13.562Z,98575.22
2022-12-31T13:37:24.289Z,98570.75
2022-12-31T13:40:30.389Z,98559.09
2022-12-31T13:43:39.456Z,98559.22
2022-12-31T13:46:45.624Z,98561.22
2022-12-31T13:49:51.987Z,98554.13
2022-12-31T13:52:59.123Z,98559.28
2022-12-31T13:56:04.715Z,98570.75
2022-12-31T13:59:14.280Z,98565.19
2022-12-31T14:02:28.087Z,98560.81
2022-12-31T14:05:35.797Z,98568.25
2022-12-31T14:08:38.649Z,98564.28
2022-12-31T14:11:57.644Z,98557.91
2022-12-31T14:15:04.856Z,98559.47
2022-12-31T14:18:11.953Z,98565.25
2022-12-31T14:21:21.648Z,98558.41
2022-12-31T14:24:34.284Z,98570.53
2022-12-31T14:27:41.589Z,98559.78
2022-12-31T14:30:45.685Z,98553.75
2022-12-31T14:33:52.365Z,98568.75
2022-12-31T14:37:01.645Z,98569.09
2022-12-31T14:40:17.043Z,98573.75
2022-12-31T14:43:26.177Z,98581.53
2022-12-31T14:46:32.095Z,98588.06
2022-12-31T14:49:44.183Z,98591.22
2022-12-31T14:52:54.506Z,98590.16
2022-12-31T14:56:01.670Z,98597.53
2022-12-31T14:59:04.629Z,98597.75
2022-12-31T15:02:26.779Z,98597.78
2022-12-31T15:05:30.942Z,98592.63
2022-12-31T15:08:48.408Z,98595.22
2022-12-31T15:12:08.657Z,98599.22
2022-12-31T15:15:23.422Z,98596.59
2022-12-31T15:18:33.361Z,98597.50
2022-12-31T15:21:44.247Z,98595.16
2022-12-31T15:24:49.630Z,98594.06
2022-12-31T15:27:52.585Z,98598.31
2022-12-31T15:30:57.614Z,98602.72
2022-12-31T15:34:02.431Z,98588.94
2022-12-31T15:37:07.363Z,98592.56
2022-12-31T15:40:21.195Z,98587.53
2022-12-31T15:43:31.518Z,98599.31
2022-12-31T15:46:38.980Z,98592.03
2022-12-31T15:49:44.105Z,98597.84
2022-12-31T15:52:48.680Z,98603.84
2022-12-31T15:55:54.842Z,98607.81
2022-12-31T15:58:59.934Z,98612.38
2022-12-31T16:02:02.645Z,98616.88
2022-12-31T16:05:05.847Z,98619.50
2022-12-31T16:08:08.559Z,98616.22
2022-12-31T16:11:12.863Z,98622.41
2022-12-31T16:14:19.695Z,98626.72
2022-12-31T16:17:30.880Z,98626.47
2022-12-31T16:20:35.574Z,98626.41
2022-12-31T16:23:42.397Z,98638.56
2022-12-31T16:26:48.436Z,98632.25
2022-12-31T16:29:59.054Z,98633.47
2022-12-31T16:33:03.535Z,98634.03
2022-12-31T16:36:06.532Z,98634.44
2022-12-31T16:39:30.663Z,98636.44
2022-12-31T16:42:38.130Z,98631.81
2022-12-31T16:45:45.331Z,98636.28
2022-12-31T16:48:51.063Z,98642.78
2022-12-31T16:51:56.159Z,98637.63
2022-12-31T16:54:59.142Z,98643.19
2022-12-31T16:58:08.612Z,98642.13
2022-12-31T17:01:14.592Z,98637.47
2022-12-31T17:04:19.381Z,98645.91
2022-12-31T17:07:38.805Z,98636.53
2022-12-31T17:10:43.345Z,98648.00
2022-12-31T17:13:54.980Z,98643.72
2022-12-31T17:17:03.627Z,98652.00
2022-12-31T17:20:09.840Z,98650.97
2022-12-31T17:23:20.679Z,98655.88
2022-12-31T17:26:25.637Z,98654.56
2022-12-31T17:29:29.547Z,98658.34
2022-12-31T17:32:37.367Z,98661.72
2022-12-31T17:35:42.159Z,98662.50
2022-12-31T17:38:44.878Z,98654.38
2022-12-31T17:41:48.372Z,98662.63
2022-12-31T17:44:55.030Z,98670.88
2022-12-31T17:47:59.790Z,98674.31
2022-12-31T17:51:03.138Z,98679.19
2022-12-31T17:54:07.502Z,98674.63
2022-12-31T17:57:22.181Z,98683.53
2022-12-31T18:00:27.965Z,98683.28
2022-12-31T18:03:30.506Z,98679.53
2022-12-31T18:06:33.116Z,98680.28
2022-12-31T18:09:35.679Z,98675.94
2022-12-31T18:12:38.286Z,98676.59
2022-12-31T18:15:42.383Z,98670.84
2022-12-31T18:18:45.404Z,98671.03
2022-12-31T18:21:48.160Z,98674.09
2022-12-31T18:24:54.017Z,98672.13
2022-12-31T18:27:56.578Z,98674.09
2022-12-31T18:31:00.555Z,98679.22
2022-12-31T18:34:03.721Z,98673.41
2022-12-31T18:37:09.874Z,98673.88
2022-12-31T18:40:13.615Z,98682.28
2022-12-31T18:43:18.173Z,98685.13
2022-12-31T18:46:24.001Z,98685.84
2022-12-31T18:49:26.541Z,98690.00
2022-12-31T18:52:29.052Z,98690.84
2022-12-31T18:55:35.056Z,98691.75
2022-12-31T18:58:37.754Z,98701.75
2022-12-31T19:01:42.198Z,98701.50
2022-12-31T19:04:45.186Z,98696.88
2022-12-31T19:07:47.860Z,98695.19
2022-12-31T19:10:52.486Z,98695.09
2022-12-31T19:13:55.203Z,98703.09
2022-12-31T19:20:04.293Z,98704.16
2022-12-31T19:23:06.996Z,98714.13
2022-12-31T19:26:13.056Z,98709.94
2022-12-31T19:29:17.021Z,98708.34
2022-12-31T19:32:21.398Z,98707.78
2022-12-31T19:35:24.844Z,98710.97
2022-12-31T19:38:28.667Z,98715.88
2022-12-31T19:41:31.483Z,98716.28
2022-12-31T19:44:34.089Z,98719.78
2022-12-31T19:47:38.170Z,98728.41
2022-12-31T19:50:42.872Z,98728.16
2022-12-31T19:53:46.200Z,98730.72
2022-12-31T19:56:49.029Z,98725.81
2022-12-31T19:59:51.637Z,98722.78
2022-12-31T20:02:55.881Z,98724.28
2022-12-31T20:06:03.757Z,98719.00
2022-12-31T20:09:06.638Z,98730.38
2022-12-31T20:12:09.713Z,98728.88
2022-12-31T20:15:12.693Z,98733.47
2022-12-31T20:18:21.149Z,98731.31
2022-12-31T20:21:26.015Z,98738.50
2022-12-31T20:24:28.570Z,98741.50
2022-12-31T20:27:31.252Z,98739.31
2022-12-31T20:30:33.957Z,98725.81
2022-12-31T20:33:38.611Z,98737.59
2022-12-31T20:36:41.874Z,98739.41
2022-12-31T20:39:44.438Z,98730.81
2022-12-31T20:42:47.248Z,98736.75
2022-12-31T20:45:49.826Z,98723.00
2022-12-31T20:48:55.114Z,98732.13
2022-12-31T20:51:57.821Z,98735.06
2022-12-31T20:55:00.425Z,98736.91
2022-12-31T20:58:04.156Z,98744.91
2022-12-31T21:01:07.768Z,98735.94
2022-12-31T21:04:12.143Z,98742.78
2022-12-31T21:07:15.160Z,98739.59
2022-12-31T21:10:18.471Z,98746.66
2022-12-31T21:13:22.885Z,98754.16
2022-12-31T21:16:25.727Z,98750.72
2022-12-31T21:19:29.606Z,98753.44
2022-12-31T21:22:33.631Z,98751.09
2022-12-31T21:25:36.328Z,98756.06
2022-12-31T21:28:38.854Z,98745.03
2022-12-31T21:31:41.444Z,98752.66
2022-12-31T21:34:51.377Z,98751.03
2022-12-31T21:38:09.345Z,98754.50
2022-12-31T21:41:34.066Z,98753.00
2022-12-31T21:44:37.652Z,98751.16
2022-12-31T21:48:06.091Z,98761.53
2022-12-31T21:51:12.945Z,98761.66
2022-12-31T21:54:35.557Z,98763.00
2022-12-31T21:58:07.319Z,98758.56
2022-12-31T22:01:19.175Z,98760.16
2022-12-31T22:04:51.697Z,98766.53
2022-12-31T22:07:46.074Z,98776.75
2022-12-31T22:10:52.489Z,98772.41
2022-12-31T22:13:56.065Z,98776.53
2022-12-31T22:16:58.740Z,98780.19
2022-12-31T22:20:25.773Z,98781.44
2022-12-31T22:23:25.156Z,98788.31
2022-12-31T22:26:29.094Z,98789.69
2022-12-31T22:29:31.806Z,98793.38
2022-12-31T22:32:34.578Z,98802.50
2022-12-31T22:35:37.206Z,98803.19
2022-12-31T22:38:41.539Z,98799.84
2022-12-31T22:41:44.075Z,98808.78
2022-12-31T22:44:46.709Z,98802.38
2022-12-31T22:47:49.275Z,98801.47
2022-12-31T22:50:56.405Z,98797.50
2022-12-31T22:54:00.963Z,98801.94
2022-12-31T22:57:03.487Z,98800.19
2022-12-31T23:00:10.038Z,98812.13
2022-12-31T23:03:13.091Z,98815.78
2022-12-31T23:06:16.077Z,98824.97
2022-12-31T23:09:37.659Z,98826.81
2022-12-31T23:12:40.352Z,98824.06
2022-12-31T23:16:03.287Z,98820.41
2022-12-31T23:19:23.942Z,98820.84
2022-12-31T23:22:44.527Z,98827.50
2022-12-31T23:25:50.592Z,98816.50
2022-12-31T23:28:53.125Z,98816.38
2022-12-31T23:31:55.875Z,98821.88
2022-12-31T23:35:01.352Z,98820.72
2022-12-31T23:38:07.229Z,98824.84
2022-12-31T23:41:15.643Z,98821.66
2022-12-31T23:44:18.510Z,98820.16
2022-12-31T23:47:21.384Z,98828.19
2022-12-31T23:50:24.363Z,98814.09
2022-12-31T23:53:26.903Z,98818.13
2022-12-31T23:56:31.637Z,98827.50
2022-12-31T23:59:34.111Z,98828.97
